createdAt,value
2022-12-03T00:00:24.649Z,42.19
2022-12-03T00:01:26.531Z,42.24
2022-12-03T00:02:28.449Z,42.18
2022-12-03T00:03:30.488Z,42.23
2022-12-03T00:04:32.441Z,42.31
2022-12-03T00:05:34.302Z,42.32
2022-12-03T00:06:36.131Z,42.30
2022-12-03T00:07:37.978Z,42.28
2022-12-03T00:08:39.848Z,42.23
2022-12-03T00:09:41.669Z,42.22
2022-12-03T00:10:43.512Z,42.18
2022-12-03T00:11:45.320Z,42.16
2022-12-03T00:12:47.134Z,42.21
2022-12-03T00:13:48.967Z,42.17
2022-12-03T00:14:51.610Z,42.23
2022-12-03T00:15:53.563Z,42.38
2022-12-03T00:16:55.468Z,42.38
2022-12-03T00:17:57.282Z,42.28
2022-12-03T00:18:59.076Z,42.26
2022-12-03T00:20:00.879Z,42.28
2022-12-03T00:21:02.713Z,42.22
2022-12-03T00:22:04.524Z,42.21
2022-12-03T00:23:06.334Z,42.23
2022-12-03T00:24:08.170Z,42.24
2022-12-03T00:25:09.950Z,42.33
2022-12-03T00:26:12.205Z,42.37
2022-12-03T00:27:14.083Z,42.40
2022-12-03T00:28:15.908Z,42.40
2022-12-03T00:29:17.697Z,42.33
2022-12-03T00:30:19.510Z,42.37
2022-12-03T00:31:21.510Z,42.46
2022-12-03T00:32:23.477Z,42.48
2022-12-03T00:33:25.295Z,42.49
2022-12-03T00:34:27.118Z,42.54
2022-12-03T00:35:28.944Z,42.58
2022-12-03T00:36:30.881Z,42.60
2022-12-03T00:37:32.682Z,42.58
2022-12-03T00:38:34.462Z,42.54
2022-12-03T00:39:36.242Z,42.52
2022-12-03T00:40:38.150Z,42.49
2022-12-03T00:41:40.014Z,42.45
2022-12-03T00:42:41.840Z,42.40
2022-12-03T00:43:43.646Z,42.42
2022-12-03T00:44:45.466Z,42.48
2022-12-03T00:45:47.290Z,42.50
2022-12-03T00:46:49.418Z,42.41
2022-12-03T00:47:51.593Z,42.41
2022-12-03T00:48:53.405Z,42.43
2022-12-03T00:49:55.193Z,42.43
2022-12-03T00:50:56.996Z,42.56
2022-12-03T00:51:58.836Z,42.61
2022-12-03T00:53:00.633Z,42.70
2022-12-03T00:54:02.458Z,42.74
2022-12-03T00:55:04.268Z,42.76
2022-12-03T00:56:06.376Z,42.80
2022-12-03T00:57:08.235Z,42.75
2022-12-03T00:58:10.049Z,42.71
2022-12-03T00:59:11.815Z,42.73
2022-12-03T01:00:13.920Z,42.75
2022-12-03T01:01:15.790Z,42.81
2022-12-03T01:02:17.700Z,42.80
2022-12-03T01:03:19.693Z,42.82
2022-12-03T01:04:21.571Z,42.87
2022-12-03T01:05:23.400Z,42.87
2022-12-03T01:06:25.235Z,42.82
2022-12-03T01:07:27.131Z,42.81
2022-12-03T01:08:28.917Z,42.78
2022-12-03T01:09:30.716Z,42.77
2022-12-03T01:10:32.630Z,42.77
2022-12-03T01:11:34.438Z,42.74
2022-12-03T01:12:36.303Z,42.72
2022-12-03T01:13:38.126Z,42.69
2022-12-03T01:14:39.917Z,42.71
2022-12-03T01:15:41.801Z,42.67
2022-12-03T01:16:43.543Z,42.60
2022-12-03T01:17:45.370Z,42.55
2022-12-03T01:18:47.401Z,42.44
2022-12-03T01:19:49.185Z,42.39
2022-12-03T01:20:50.999Z,42.42
2022-12-03T01:21:52.812Z,42.37
2022-12-03T01:22:54.670Z,42.34
2022-12-03T01:23:56.483Z,42.33
2022-12-03T01:24:58.309Z,42.32
2022-12-03T01:26:00.119Z,42.29
2022-12-03T01:27:01.908Z,42.21
2022-12-03T01:28:03.744Z,42.08
2022-12-03T01:29:05.537Z,42.08
2022-12-03T01:30:07.322Z,42.14
2022-12-03T01:31:09.185Z,42.13
2022-12-03T01:32:10.970Z,42.23
2022-12-03T01:33:12.821Z,42.33
2022-12-03T01:34:14.722Z,42.43
2022-12-03T01:35:16.547Z,42.40
2022-12-03T01:36:18.359Z,42.33
2022-12-03T01:37:20.179Z,42.33
2022-12-03T01:38:22.030Z,42.35
2022-12-03T01:39:23.828Z,42.41
2022-12-03T01:40:25.724Z,42.41
2022-12-03T01:41:27.509Z,42.39
2022-12-03T01:42:29.323Z,42.46
2022-12-03T01:43:31.171Z,42.47
2022-12-03T01:44:32.989Z,42.46
2022-12-03T01:45:34.800Z,42.49
2022-12-03T01:46:36.677Z,42.46
2022-12-03T01:47:38.503Z,42.53
2022-12-03T01:48:40.335Z,42.54
2022-12-03T01:49:42.165Z,42.50
2022-12-03T01:50:44.181Z,42.42
2022-12-03T01:51:45.955Z,42.39
2022-12-03T01:52:47.763Z,42.39
2022-12-03T01:53:49.607Z,42.36
2022-12-03T01:54:51.747Z,42.39
2022-12-03T01:55:53.825Z,42.43
2022-12-03T01:56:55.628Z,42.45
2022-12-03T01:57:57.427Z,42.40
2022-12-03T01:58:59.285Z,42.32
2022-12-03T02:00:01.084Z,42.36
2022-12-03T02:01:02.860Z,42.44
2022-12-03T02:02:04.691Z,42.55
2022-12-03T02:03:06.478Z,42.52
2022-12-03T02:04:08.408Z,42.49
2022-12-03T02:05:10.379Z,42.47
2022-12-03T02:06:12.283Z,42.48
2022-12-03T02:07:14.109Z,42.45
2022-12-03T02:08:16.014Z,42.48
2022-12-03T02:09:17.867Z,42.58
2022-12-03T02:10:19.668Z,42.65
2022-12-03T02:11:21.475Z,42.59
2022-12-03T02:12:23.265Z,42.55
2022-12-03T02:13:25.169Z,42.52
2022-12-03T02:14:27.015Z,42.47
2022-12-03T02:15:28.804Z,42.45
2022-12-03T02:16:30.790Z,42.48
2022-12-03T02:17:32.635Z,42.49
2022-12-03T02:18:34.538Z,42.50
2022-12-03T02:19:36.391Z,42.54
2022-12-03T02:20:38.231Z,42.52
2022-12-03T02:21:40.031Z,42.49
2022-12-03T02:22:41.859Z,42.55
2022-12-03T02:23:43.659Z,42.52
2022-12-03T02:24:45.511Z,42.54
2022-12-03T02:25:47.329Z,42.59
2022-12-03T02:26:49.235Z,42.58
2022-12-03T02:27:51.028Z,42.60
2022-12-03T02:28:52.844Z,42.56
2022-12-03T02:29:54.710Z,42.52
2022-12-03T02:30:56.575Z,42.52
2022-12-03T02:31:58.493Z,42.53
2022-12-03T02:33:00.341Z,42.49
2022-12-03T02:34:02.161Z,42.53
2022-12-03T02:35:04.008Z,42.52
2022-12-03T02:36:06.047Z,42.49
2022-12-03T02:37:07.857Z,42.50
2022-12-03T02:38:09.662Z,42.56
2022-12-03T02:39:11.474Z,42.57
2022-12-03T02:40:13.411Z,42.58
2022-12-03T02:41:15.223Z,42.57
2022-12-03T02:42:17.033Z,42.63
2022-12-03T02:43:18.829Z,42.71
2022-12-03T02:44:20.628Z,42.73
2022-12-03T02:45:22.486Z,42.78
2022-12-03T02:46:24.340Z,42.78
2022-12-03T02:47:26.186Z,42.78
2022-12-03T02:48:27.989Z,42.82
2022-12-03T02:49:29.790Z,42.83
2022-12-03T02:50:31.651Z,42.89
2022-12-03T02:51:33.547Z,42.85
2022-12-03T02:52:35.354Z,42.92
2022-12-03T02:53:37.162Z,43.00
2022-12-03T02:54:38.978Z,43.13
2022-12-03T02:55:40.824Z,43.12
2022-12-03T02:56:42.725Z,43.07
2022-12-03T02:57:44.527Z,43.00
2022-12-03T02:58:46.331Z,43.00
2022-12-03T02:59:48.136Z,42.88
2022-12-03T03:00:50.137Z,42.83
2022-12-03T03:01:51.987Z,42.81
2022-12-03T03:02:53.807Z,42.82
2022-12-03T03:03:55.629Z,42.87
2022-12-03T03:04:57.422Z,42.93
2022-12-03T03:05:59.276Z,43.00
2022-12-03T03:07:01.167Z,43.08
2022-12-03T03:08:03.210Z,43.01
2022-12-03T03:09:05.083Z,42.94
2022-12-03T03:10:06.896Z,42.93
2022-12-03T03:11:08.765Z,42.95
2022-12-03T03:12:10.573Z,42.87
2022-12-03T03:13:12.366Z,42.80
2022-12-03T03:14:14.168Z,42.72
2022-12-03T03:15:15.968Z,42.70
2022-12-03T03:16:17.954Z,42.66
2022-12-03T03:17:19.750Z,42.64
2022-12-03T03:18:21.575Z,42.72
2022-12-03T03:19:23.366Z,42.71
2022-12-03T03:20:25.193Z,42.68
2022-12-03T03:21:27.041Z,42.80
2022-12-03T03:22:28.949Z,42.83
2022-12-03T03:23:30.769Z,42.80
2022-12-03T03:24:32.568Z,42.72
2022-12-03T03:25:34.383Z,42.74
2022-12-03T03:26:36.226Z,42.75
2022-12-03T03:27:38.030Z,42.75
2022-12-03T03:28:39.852Z,42.75
2022-12-03T03:29:41.661Z,42.63
2022-12-03T03:30:43.690Z,42.56
2022-12-03T03:31:45.700Z,42.50
2022-12-03T03:32:47.739Z,42.50
2022-12-03T03:33:49.529Z,42.52
2022-12-03T03:34:51.805Z,42.48
2022-12-03T03:35:53.843Z,42.43
2022-12-03T03:36:55.702Z,42.41
2022-12-03T03:37:57.548Z,42.39
2022-12-03T03:38:59.395Z,42.38
2022-12-03T03:40:01.196Z,42.38
2022-12-03T03:41:02.999Z,42.48
2022-12-03T03:42:04.838Z,42.46
2022-12-03T03:43:06.645Z,42.49
2022-12-03T03:44:08.442Z,42.57
2022-12-03T03:45:10.338Z,42.51
2022-12-03T03:46:12.233Z,42.44
2022-12-03T03:47:14.140Z,42.33
2022-12-03T03:48:15.937Z,42.26
2022-12-03T03:49:17.741Z,42.23
2022-12-03T03:50:19.552Z,42.26
2022-12-03T03:51:21.377Z,42.25
2022-12-03T03:52:23.253Z,42.34
2022-12-03T03:53:25.081Z,42.33
2022-12-03T03:54:27.949Z,42.25
2022-12-03T03:55:29.785Z,42.33
2022-12-03T03:56:31.717Z,42.37
2022-12-03T03:57:33.569Z,42.39
2022-12-03T03:58:35.366Z,42.39
2022-12-03T03:59:37.186Z,42.29
2022-12-03T04:00:38.997Z,42.35
2022-12-03T04:01:40.802Z,42.38
2022-12-03T04:02:42.641Z,42.35
2022-12-03T04:03:44.466Z,42.27
2022-12-03T04:04:46.261Z,42.28
2022-12-03T04:05:48.078Z,42.33
2022-12-03T04:06:49.991Z,42.29
2022-12-03T04:07:52.294Z,42.27
2022-12-03T04:08:54.304Z,42.29
2022-12-03T04:09:56.100Z,42.31
2022-12-03T04:10:57.909Z,42.32
2022-12-03T04:11:59.726Z,42.35
2022-12-03T04:13:01.575Z,42.41
2022-12-03T04:14:03.386Z,42.47
2022-12-03T04:15:05.184Z,42.41
2022-12-03T04:16:07.165Z,42.44
2022-12-03T04:17:08.898Z,42.52
2022-12-03T04:18:10.755Z,42.65
2022-12-03T04:19:12.555Z,42.75
2022-12-03T04:20:14.465Z,42.73
2022-12-03T04:21:16.258Z,42.61
2022-12-03T04:22:18.056Z,42.59
2022-12-03T04:23:19.907Z,42.55
2022-12-03T04:24:21.753Z,42.50
2022-12-03T04:25:23.575Z,42.46
2022-12-03T04:26:25.375Z,42.52
2022-12-03T04:27:27.173Z,42.50
2022-12-03T04:28:29.014Z,42.42
2022-12-03T04:29:30.832Z,42.36
2022-12-03T04:30:32.687Z,42.35
2022-12-03T04:31:34.544Z,42.37
2022-12-03T04:32:36.321Z,42.40
2022-12-03T04:33:38.192Z,42.40
2022-12-03T04:34:39.996Z,42.37
2022-12-03T04:35:41.803Z,42.38
2022-12-03T04:36:43.711Z,42.28
2022-12-03T04:37:45.513Z,42.27
2022-12-03T04:38:47.258Z,42.33
2022-12-03T04:39:49.127Z,42.31
2022-12-03T04:40:50.944Z,42.27
2022-12-03T04:41:52.746Z,42.31
2022-12-03T04:42:54.565Z,42.31
2022-12-03T04:43:56.422Z,42.17
2022-12-03T04:44:58.219Z,42.36
2022-12-03T04:46:00.097Z,42.36
2022-12-03T04:47:01.926Z,42.09
2022-12-03T04:48:03.724Z,42.13
2022-12-03T04:49:05.581Z,42.10
2022-12-03T04:50:07.493Z,42.10
2022-12-03T04:51:09.315Z,42.07
2022-12-03T04:52:11.119Z,42.06
2022-12-03T04:53:12.923Z,42.10
2022-12-03T04:54:14.782Z,42.15
2022-12-03T04:55:16.663Z,42.19
2022-12-03T04:56:18.500Z,42.29
2022-12-03T04:57:20.313Z,42.27
2022-12-03T04:58:22.100Z,42.19
2022-12-03T04:59:23.920Z,42.26
2022-12-03T05:00:25.740Z,42.29
2022-12-03T05:01:27.632Z,42.32
2022-12-03T05:02:29.517Z,42.31
2022-12-03T05:03:31.278Z,42.32
2022-12-03T05:04:33.129Z,42.29
2022-12-03T05:05:34.922Z,42.28
2022-12-03T05:06:36.709Z,42.27
2022-12-03T05:07:38.575Z,42.29
2022-12-03T05:08:40.409Z,42.28
2022-12-03T05:09:42.253Z,42.28
2022-12-03T05:10:44.527Z,42.31
2022-12-03T05:11:46.320Z,42.27
2022-12-03T05:12:48.119Z,42.22
2022-12-03T05:13:49.936Z,42.17
2022-12-03T05:14:52.228Z,42.23
2022-12-03T05:15:54.299Z,42.25
2022-12-03T05:16:56.331Z,42.19
2022-12-03T05:17:58.318Z,42.19
2022-12-03T05:19:00.082Z,42.18
2022-12-03T05:20:02.039Z,42.10
2022-12-03T05:21:03.828Z,42.09
2022-12-03T05:22:05.649Z,42.08
2022-12-03T05:23:07.446Z,42.04
2022-12-03T05:24:09.257Z,41.99
2022-12-03T05:25:11.105Z,41.96
2022-12-03T05:26:13.098Z,41.96
2022-12-03T05:27:18.778Z,41.85
2022-12-03T05:28:18.510Z,41.95
2022-12-03T05:29:20.307Z,41.93
2022-12-03T05:30:22.158Z,41.93
2022-12-03T05:31:24.007Z,41.98
2022-12-03T05:32:25.858Z,41.86
2022-12-03T05:33:27.640Z,41.87
2022-12-03T05:34:29.430Z,41.76
2022-12-03T05:35:31.282Z,41.76
2022-12-03T05:36:33.087Z,41.77
2022-12-03T05:37:35.103Z,41.74
2022-12-03T05:38:36.930Z,41.67
2022-12-03T05:39:38.748Z,41.54
2022-12-03T05:40:40.904Z,41.63
2022-12-03T05:41:42.746Z,41.68
2022-12-03T05:42:44.553Z,41.64
2022-12-03T05:43:46.401Z,41.64
2022-12-03T05:44:48.185Z,41.63
2022-12-03T05:45:50.104Z,41.65
2022-12-03T05:46:52.047Z,41.70
2022-12-03T05:47:53.853Z,41.87
2022-12-03T05:48:55.642Z,41.91
2022-12-03T05:49:57.444Z,41.83
2022-12-03T05:50:59.408Z,41.77
2022-12-03T05:52:01.241Z,41.75
2022-12-03T05:53:03.048Z,41.67
2022-12-03T05:54:04.875Z,41.66
2022-12-03T05:55:06.660Z,41.65
2022-12-03T05:56:08.532Z,41.67
2022-12-03T05:57:10.404Z,41.70
2022-12-03T05:58:12.186Z,41.78
2022-12-03T05:59:14.000Z,41.73
2022-12-03T06:00:15.801Z,41.78
2022-12-03T06:01:17.634Z,41.84
2022-12-03T06:02:19.522Z,41.77
2022-12-03T06:03:21.517Z,41.72
2022-12-03T06:04:23.479Z,41.68
2022-12-03T06:05:25.282Z,41.66
2022-12-03T06:06:27.140Z,41.62
2022-12-03T06:07:29.125Z,41.63
2022-12-03T06:08:30.869Z,41.65
2022-12-03T06:09:32.651Z,41.66
2022-12-03T06:10:34.460Z,41.65
2022-12-03T06:11:36.312Z,41.68
2022-12-03T06:12:38.388Z,41.71
2022-12-03T06:13:40.210Z,41.65
2022-12-03T06:14:42.021Z,41.61
2022-12-03T06:15:44.407Z,41.55
2022-12-03T06:16:46.513Z,41.53
2022-12-03T06:17:48.381Z,41.54
2022-12-03T06:18:50.249Z,41.51
2022-12-03T06:19:52.060Z,41.50
2022-12-03T06:20:53.937Z,41.48
2022-12-03T06:21:55.795Z,41.38
2022-12-03T06:22:57.572Z,41.39
2022-12-03T06:23:59.399Z,41.46
2022-12-03T06:25:06.575Z,41.41
2022-12-03T06:26:04.875Z,41.41
2022-12-03T06:27:06.726Z,41.41
2022-12-03T06:28:08.633Z,41.57
2022-12-03T06:29:10.416Z,41.51
2022-12-03T06:30:12.227Z,41.49
2022-12-03T06:31:14.141Z,41.40
2022-12-03T06:32:15.973Z,41.33
2022-12-03T06:33:17.766Z,41.34
2022-12-03T06:34:19.676Z,41.35
2022-12-03T06:35:21.480Z,41.35
2022-12-03T06:36:23.649Z,41.30
2022-12-03T06:37:25.545Z,41.33
2022-12-03T06:38:27.361Z,41.36
2022-12-03T06:39:29.166Z,41.32
2022-12-03T06:40:30.968Z,41.27
2022-12-03T06:41:32.778Z,41.27
2022-12-03T06:42:34.626Z,41.25
2022-12-03T06:43:36.498Z,41.34
2022-12-03T06:44:38.306Z,41.32
2022-12-03T06:45:43.290Z,41.25
2022-12-03T06:46:43.778Z,41.21
2022-12-03T06:47:45.593Z,41.19
2022-12-03T06:48:47.411Z,41.15
2022-12-03T06:49:49.207Z,41.13
2022-12-03T06:50:50.999Z,41.05
2022-12-03T06:51:52.828Z,41.06
2022-12-03T06:52:54.678Z,41.07
2022-12-03T06:53:56.574Z,41.04
2022-12-03T06:54:58.426Z,41.02
2022-12-03T06:56:00.226Z,41.05
2022-12-03T06:57:02.047Z,41.03
2022-12-03T06:58:03.920Z,40.92
2022-12-03T06:59:05.784Z,40.85
2022-12-03T07:00:07.702Z,40.81
2022-12-03T07:01:09.592Z,40.77
2022-12-03T07:02:11.484Z,40.71
2022-12-03T07:03:13.358Z,40.74
2022-12-03T07:04:15.152Z,40.82
2022-12-03T07:05:16.970Z,40.79
2022-12-03T07:06:18.839Z,40.78
2022-12-03T07:07:20.748Z,40.90
2022-12-03T07:08:22.592Z,40.92
2022-12-03T07:09:24.395Z,40.89
2022-12-03T07:10:26.502Z,40.88
2022-12-03T07:11:28.320Z,40.85
2022-12-03T07:12:30.127Z,40.76
2022-12-03T07:13:31.985Z,40.77
2022-12-03T07:14:33.816Z,40.66
2022-12-03T07:15:35.613Z,40.58
2022-12-03T07:16:37.544Z,40.56
2022-12-03T07:17:39.357Z,40.57
2022-12-03T07:18:41.193Z,40.58
2022-12-03T07:19:43.025Z,40.62
2022-12-03T07:20:44.834Z,40.53
2022-12-03T07:21:46.641Z,40.50
2022-12-03T07:22:48.432Z,40.56
2022-12-03T07:23:50.272Z,40.58
2022-12-03T07:24:52.479Z,40.52
2022-12-03T07:25:54.600Z,40.46
2022-12-03T07:26:56.405Z,40.50
2022-12-03T07:27:58.220Z,40.56
2022-12-03T07:29:00.083Z,40.63
2022-12-03T07:30:01.910Z,40.62
2022-12-03T07:31:03.791Z,40.60
2022-12-03T07:32:05.646Z,40.60
2022-12-03T07:33:07.482Z,40.65
2022-12-03T07:34:09.336Z,40.64
2022-12-03T07:35:11.147Z,40.69
2022-12-03T07:36:12.971Z,40.78
2022-12-03T07:37:18.620Z,40.79
2022-12-03T07:38:18.432Z,40.73
2022-12-03T07:39:20.279Z,40.74
2022-12-03T07:40:22.170Z,40.78
2022-12-03T07:41:23.975Z,40.73
2022-12-03T07:42:25.789Z,40.67
2022-12-03T07:43:27.601Z,40.62
2022-12-03T07:44:29.436Z,40.43
2022-12-03T07:45:31.304Z,40.43
2022-12-03T07:46:33.180Z,40.45
2022-12-03T07:47:34.938Z,40.44
2022-12-03T07:48:36.791Z,40.49
2022-12-03T07:49:38.623Z,40.41
2022-12-03T07:50:40.426Z,40.31
2022-12-03T07:51:42.241Z,40.28
2022-12-03T07:52:44.052Z,40.11
2022-12-03T07:53:45.858Z,40.14
2022-12-03T07:54:47.701Z,40.23
2022-12-03T07:55:49.541Z,40.23
2022-12-03T07:56:54.337Z,40.29
2022-12-03T07:57:55.085Z,40.29
2022-12-03T07:58:56.907Z,40.54
2022-12-03T07:59:58.744Z,40.54
2022-12-03T08:01:00.600Z,40.27
2022-12-03T08:02:02.435Z,40.25
2022-12-03T08:03:04.298Z,40.26
2022-12-03T08:04:06.122Z,40.29
2022-12-03T08:05:07.971Z,40.33
2022-12-03T08:06:10.186Z,40.31
2022-12-03T08:07:11.982Z,40.24
2022-12-03T08:08:13.881Z,40.20
2022-12-03T08:09:16.333Z,40.17
2022-12-03T08:10:18.351Z,40.16
2022-12-03T08:11:20.154Z,40.09
2022-12-03T08:12:21.958Z,40.15
2022-12-03T08:13:23.777Z,39.97
2022-12-03T08:14:25.605Z,39.94
2022-12-03T08:15:27.456Z,40.02
2022-12-03T08:16:29.398Z,39.88
2022-12-03T08:17:31.240Z,40.00
2022-12-03T08:18:33.045Z,40.08
2022-12-03T08:19:34.851Z,40.06
2022-12-03T08:20:36.700Z,40.08
2022-12-03T08:21:38.516Z,40.13
2022-12-03T08:22:40.319Z,40.11
2022-12-03T08:23:42.142Z,40.01
2022-12-03T08:24:43.952Z,40.09
2022-12-03T08:25:45.822Z,40.17
2022-12-03T08:26:47.617Z,40.15
2022-12-03T08:27:49.417Z,40.13
2022-12-03T08:28:51.235Z,40.13
2022-12-03T08:29:53.037Z,40.12
2022-12-03T08:30:54.879Z,40.10
2022-12-03T08:31:56.781Z,40.00
2022-12-03T08:32:58.653Z,40.05
2022-12-03T08:34:00.478Z,40.12
2022-12-03T08:35:02.269Z,40.10
2022-12-03T08:36:04.118Z,40.14
2022-12-03T08:37:05.929Z,40.17
2022-12-03T08:38:07.741Z,40.02
2022-12-03T08:39:09.557Z,39.99
2022-12-03T08:40:11.457Z,39.95
2022-12-03T08:41:13.284Z,39.91
2022-12-03T08:42:15.118Z,39.91
2022-12-03T08:43:16.941Z,39.98
2022-12-03T08:44:18.736Z,40.02
2022-12-03T08:45:20.540Z,40.04
2022-12-03T08:46:22.527Z,40.02
2022-12-03T08:47:24.343Z,40.06
2022-12-03T08:48:26.134Z,39.97
2022-12-03T08:49:27.933Z,39.99
2022-12-03T08:50:29.835Z,39.85
2022-12-03T08:51:31.687Z,39.78
2022-12-03T08:52:33.505Z,39.81
2022-12-03T08:53:35.288Z,39.59
2022-12-03T08:54:37.096Z,39.59
2022-12-03T08:55:38.902Z,39.61
2022-12-03T08:56:40.753Z,39.57
2022-12-03T08:57:42.527Z,39.56
2022-12-03T08:58:44.341Z,39.56
2022-12-03T08:59:46.122Z,39.61
2022-12-03T09:00:48.260Z,39.71
2022-12-03T09:01:50.152Z,39.78
2022-12-03T09:02:51.980Z,39.73
2022-12-03T09:03:53.864Z,39.67
2022-12-03T09:04:55.941Z,39.62
2022-12-03T09:05:57.917Z,39.55
2022-12-03T09:06:59.977Z,39.57
2022-12-03T09:08:01.816Z,39.48
2022-12-03T09:09:06.694Z,39.54
2022-12-03T09:10:07.390Z,39.61
2022-12-03T09:11:09.198Z,39.68
2022-12-03T09:12:11.043Z,39.54
2022-12-03T09:13:12.897Z,39.58
2022-12-03T09:14:18.521Z,39.66
2022-12-03T09:15:18.328Z,39.65
2022-12-03T09:16:20.212Z,39.65
2022-12-03T09:17:22.085Z,39.57
2022-12-03T09:18:23.920Z,39.59
2022-12-03T09:19:25.734Z,39.49
2022-12-03T09:20:27.560Z,39.41
2022-12-03T09:21:29.336Z,39.32
2022-12-03T09:22:31.181Z,39.31
2022-12-03T09:23:32.983Z,39.27
2022-12-03T09:24:34.780Z,39.32
2022-12-03T09:25:36.608Z,39.42
2022-12-03T09:26:38.409Z,39.40
2022-12-03T09:27:40.268Z,39.48
2022-12-03T09:28:42.076Z,39.40
2022-12-03T09:29:43.875Z,39.42
2022-12-03T09:30:45.690Z,39.39
2022-12-03T09:31:47.565Z,39.39
2022-12-03T09:32:49.419Z,39.33
2022-12-03T09:33:51.278Z,39.29
2022-12-03T09:34:53.367Z,39.21
2022-12-03T09:35:55.386Z,39.23
2022-12-03T09:36:57.199Z,39.16
2022-12-03T09:37:59.044Z,39.17
2022-12-03T09:39:00.853Z,39.31
2022-12-03T09:40:02.654Z,39.30
2022-12-03T09:41:04.479Z,39.33
2022-12-03T09:42:06.266Z,39.32
2022-12-03T09:43:08.115Z,39.26
2022-12-03T09:44:15.806Z,39.25
2022-12-03T09:45:13.521Z,39.27
2022-12-03T09:46:15.688Z,39.18
2022-12-03T09:47:17.559Z,39.19
2022-12-03T09:48:19.405Z,39.13
2022-12-03T09:49:21.214Z,39.18
2022-12-03T09:50:23.038Z,39.26
2022-12-03T09:51:24.852Z,39.19
2022-12-03T09:52:26.658Z,39.23
2022-12-03T09:53:29.321Z,39.24
2022-12-03T09:54:31.212Z,39.06
2022-12-03T09:55:33.113Z,39.04
2022-12-03T09:56:34.913Z,39.01
2022-12-03T09:57:36.721Z,38.92
2022-12-03T09:58:38.561Z,38.91
2022-12-03T09:59:40.362Z,38.83
2022-12-03T10:00:42.262Z,38.80
2022-12-03T10:01:44.139Z,38.87
2022-12-03T10:02:45.979Z,38.88
2022-12-03T10:03:47.818Z,38.92
2022-12-03T10:04:49.817Z,38.92
2022-12-03T10:05:51.790Z,38.85
2022-12-03T10:06:53.743Z,38.86
2022-12-03T10:07:55.579Z,38.93
2022-12-03T10:08:57.497Z,38.94
2022-12-03T10:09:59.308Z,39.03
2022-12-03T10:11:01.110Z,39.09
2022-12-03T10:12:02.920Z,39.02
2022-12-03T10:13:04.724Z,38.87
2022-12-03T10:14:06.541Z,38.85
2022-12-03T10:15:08.347Z,38.78
2022-12-03T10:16:10.268Z,38.71
2022-12-03T10:17:12.181Z,38.65
2022-12-03T10:18:14.019Z,38.63
2022-12-03T10:19:15.922Z,38.54
2022-12-03T10:20:17.789Z,38.48
2022-12-03T10:21:19.560Z,38.46
2022-12-03T10:22:21.481Z,38.50
2022-12-03T10:23:23.265Z,38.56
2022-12-03T10:24:25.131Z,38.71
2022-12-03T10:25:26.920Z,38.72
2022-12-03T10:26:29.014Z,38.48
2022-12-03T10:27:30.833Z,38.59
2022-12-03T10:28:32.659Z,38.62
2022-12-03T10:29:44.839Z,38.60
2022-12-03T10:30:47.014Z,38.63
2022-12-03T10:31:48.786Z,38.55
2022-12-03T10:32:50.588Z,38.51
2022-12-03T10:33:52.387Z,38.48
2022-12-03T10:34:54.414Z,38.53
2022-12-03T10:35:56.408Z,38.57
2022-12-03T10:36:58.358Z,38.47
2022-12-03T10:38:00.169Z,38.46
2022-12-03T10:39:01.996Z,38.31
2022-12-03T10:40:03.862Z,38.26
2022-12-03T10:41:05.663Z,38.26
2022-12-03T10:42:07.472Z,38.28
2022-12-03T10:43:09.296Z,38.29
2022-12-03T10:44:11.119Z,38.23
2022-12-03T10:45:12.942Z,38.23
2022-12-03T10:46:14.803Z,38.25
2022-12-03T10:47:16.779Z,38.27
2022-12-03T10:48:18.676Z,38.29
2022-12-03T10:49:20.475Z,38.30
2022-12-03T10:50:22.335Z,38.33
2022-12-03T10:51:24.181Z,38.32
2022-12-03T10:52:26.335Z,38.21
2022-12-03T10:53:28.087Z,38.20
2022-12-03T10:54:29.877Z,38.19
2022-12-03T10:55:31.712Z,38.09
2022-12-03T10:56:33.531Z,38.13
2022-12-03T10:57:35.316Z,38.10
2022-12-03T10:58:37.095Z,38.05
2022-12-03T10:59:38.815Z,38.11
2022-12-03T11:00:40.678Z,38.08
2022-12-03T11:01:42.576Z,38.13
2022-12-03T11:02:44.411Z,38.19
2022-12-03T11:03:47.168Z,38.17
2022-12-03T11:04:49.040Z,38.06
2022-12-03T11:05:50.909Z,38.02
2022-12-03T11:06:52.756Z,38.00
2022-12-03T11:07:54.615Z,37.98
2022-12-03T11:08:58.673Z,37.95
2022-12-03T11:10:00.100Z,37.78
2022-12-03T11:11:01.964Z,37.68
2022-12-03T11:12:03.767Z,37.78
2022-12-03T11:13:05.583Z,37.84
2022-12-03T11:14:07.401Z,37.71
2022-12-03T11:15:09.212Z,37.58
2022-12-03T11:16:11.155Z,37.60
2022-12-03T11:17:13.427Z,37.60
2022-12-03T11:18:15.247Z,37.52
2022-12-03T11:19:17.227Z,37.45
2022-12-03T11:20:22.622Z,37.34
2022-12-03T11:21:22.778Z,37.37
2022-12-03T11:22:24.606Z,37.37
2022-12-03T11:23:26.394Z,37.43
2022-12-03T11:24:28.220Z,37.44
2022-12-03T11:25:30.004Z,37.42
2022-12-03T11:26:32.371Z,37.31
2022-12-03T11:27:34.214Z,37.37
2022-12-03T11:28:36.029Z,37.30
2022-12-03T11:29:37.878Z,37.25
2022-12-03T11:30:39.875Z,37.20
2022-12-03T11:31:41.995Z,37.01
2022-12-03T11:32:43.858Z,36.88
2022-12-03T11:33:45.667Z,36.91
2022-12-03T11:34:47.483Z,36.81
2022-12-03T11:35:49.278Z,36.82
2022-12-03T11:37:01.610Z,36.88
2022-12-03T11:37:54.765Z,36.86
2022-12-03T11:38:56.570Z,36.87
2022-12-03T11:39:58.379Z,36.78
2022-12-03T11:41:00.292Z,36.76
2022-12-03T11:42:02.127Z,36.68
2022-12-03T11:43:03.933Z,36.74
2022-12-03T11:44:05.759Z,36.71
2022-12-03T11:45:07.565Z,36.61
2022-12-03T11:46:09.553Z,36.55
2022-12-03T11:47:11.420Z,36.50
2022-12-03T11:48:13.395Z,36.56
2022-12-03T11:49:15.387Z,36.60
2022-12-03T11:50:17.200Z,36.55
2022-12-03T11:51:19.003Z,36.54
2022-12-03T11:52:20.861Z,36.62
2022-12-03T11:53:22.682Z,36.66
2022-12-03T11:54:24.539Z,36.62
2022-12-03T11:55:27.478Z,36.55
2022-12-03T11:56:29.397Z,36.46
2022-12-03T11:57:31.244Z,36.45
2022-12-03T11:58:33.051Z,36.54
2022-12-03T11:59:34.842Z,36.57
2022-12-03T12:00:36.674Z,36.50
2022-12-03T12:01:39.262Z,36.59
2022-12-03T12:02:41.293Z,36.60
2022-12-03T12:03:43.187Z,36.67
2022-12-03T12:04:45.165Z,36.76
2022-12-03T12:05:46.985Z,36.74
2022-12-03T12:06:53.238Z,36.72
2022-12-03T12:07:52.489Z,36.66
2022-12-03T12:08:54.377Z,36.67
2022-12-03T12:09:56.432Z,36.67
2022-12-03T12:10:58.498Z,36.69
2022-12-03T12:12:00.295Z,36.62
2022-12-03T12:13:02.150Z,36.46
2022-12-03T12:14:03.953Z,36.35
2022-12-03T12:15:06.380Z,36.35
2022-12-03T12:16:08.298Z,36.35
2022-12-03T12:17:10.103Z,36.24
2022-12-03T12:18:11.954Z,36.19
2022-12-03T12:19:13.764Z,36.19
2022-12-03T12:20:15.554Z,36.13
2022-12-03T12:21:17.353Z,36.19
2022-12-03T12:22:19.174Z,36.20
2022-12-03T12:23:21.000Z,36.21
2022-12-03T12:24:22.894Z,36.35
2022-12-03T12:25:24.682Z,36.41
2022-12-03T12:26:44.012Z,36.46
2022-12-03T12:27:46.373Z,36.56
2022-12-03T12:28:48.260Z,36.51
2022-12-03T12:29:50.070Z,36.56
2022-12-03T12:30:51.886Z,36.50
2022-12-03T12:31:54.395Z,36.54
2022-12-03T12:32:56.248Z,36.49
2022-12-03T12:33:58.125Z,36.39
2022-12-03T12:34:59.941Z,36.31
2022-12-03T12:36:01.745Z,36.38
2022-12-03T12:37:03.581Z,36.40
2022-12-03T12:38:05.412Z,36.34
2022-12-03T12:39:07.309Z,36.26
2022-12-03T12:40:09.136Z,36.21
2022-12-03T12:41:10.931Z,36.18
2022-12-03T12:42:12.931Z,36.19
2022-12-03T12:43:20.288Z,36.11
2022-12-03T12:44:18.521Z,36.09
2022-12-03T12:45:20.468Z,36.08
2022-12-03T12:46:47.294Z,36.13
2022-12-03T12:47:25.954Z,36.20
2022-12-03T12:48:27.791Z,36.14
2022-12-03T12:49:29.673Z,36.09
2022-12-03T12:50:31.616Z,35.96
2022-12-03T12:51:33.510Z,35.88
2022-12-03T12:52:35.318Z,35.82
2022-12-03T12:53:37.126Z,35.79
2022-12-03T12:54:38.980Z,35.84
2022-12-03T12:55:40.904Z,35.80
2022-12-03T12:56:42.917Z,35.84
2022-12-03T12:57:44.738Z,35.88
2022-12-03T12:58:46.553Z,35.86
2022-12-03T12:59:49.733Z,35.86
2022-12-03T13:00:51.595Z,35.71
2022-12-03T13:01:53.552Z,35.60
2022-12-03T13:02:55.472Z,35.49
2022-12-03T13:03:57.310Z,35.50
2022-12-03T13:04:59.187Z,35.57
2022-12-03T13:06:00.983Z,35.59
2022-12-03T13:07:02.785Z,35.61
2022-12-03T13:08:10.122Z,35.63
2022-12-03T13:09:08.230Z,35.63
2022-12-03T13:10:10.185Z,35.57
2022-12-03T13:11:12.115Z,35.48
2022-12-03T13:12:13.854Z,35.47
2022-12-03T13:13:15.717Z,35.40
2022-12-03T13:14:17.662Z,35.39
2022-12-03T13:15:19.467Z,35.45
2022-12-03T13:16:21.327Z,35.43
2022-12-03T13:17:23.074Z,35.52